sensor_id;sensor_type;location;lat;lon;timestamp;temperature;humidity
13835;DHT22;6988;52.614;13.500;2022-08-11T00:02:49;18.50;99.90
13835;DHT22;6988;52.614;13.500;2022-08-11T00:07:44;18.40;99.90
13835;DHT22;6988;52.614;13.500;2022-08-11T00:12:40;18.40;99.90
13835;DHT22;6988;52.614;13.500;2022-08-11T00:17:34;18.30;99.90
13835;DHT22;6988;52.614;13.500;2022-08-11T00:22:28;18.20;99.90
13835;DHT22;6988;52.614;13.500;2022-08-11T00:27:30;18.20;99.90
13835;DHT22;6988;52.614;13.500;2022-08-11T00:32:26;18.10;99.90
13835;DHT22;6988;52.614;13.500;2022-08-11T00:37:20;18.00;99.90
13835;DHT22;6988;52.614;13.500;2022-08-11T00:42:25;17.90;99.90
13835;DHT22;6988;52.614;13.500;2022-08-11T00:47:44;17.90;99.90
13835;DHT22;6988;52.614;13.500;2022-08-11T00:53:11;17.80;99.90
13835;DHT22;6988;52.614;13.500;2022-08-11T01:04:43;17.70;99.90
13835;DHT22;6988;52.614;13.500;2022-08-11T01:10:06;17.60;99.90
13835;DHT22;6988;52.614;13.500;2022-08-11T01:15:48;17.60;99.90
13835;DHT22;6988;52.614;13.500;2022-08-11T01:21:15;17.40;99.90
13835;DHT22;6988;52.614;13.500;2022-08-11T01:27:01;17.40;99.90
13835;DHT22;6988;52.614;13.500;2022-08-11T01:32:26;17.40;99.90
13835;DHT22;6988;52.614;13.500;2022-08-11T01:38:00;17.30;99.90
13835;DHT22;6988;52.614;13.500;2022-08-11T01:49:24;17.00;99.90
13835;DHT22;6988;52.614;13.500;2022-08-11T01:54:27;16.90;99.90
13835;DHT22;6988;52.614;13.500;2022-08-11T01:59:27;16.80;99.90
13835;DHT22;6988;52.614;13.500;2022-08-11T02:04:30;16.80;99.90
13835;DHT22;6988;52.614;13.500;2022-08-11T02:09:42;16.70;99.90
13835;DHT22;6988;52.614;13.500;2022-08-11T02:14:47;16.60;99.90
13835;DHT22;6988;52.614;13.500;2022-08-11T02:19:54;16.50;99.90
13835;DHT22;6988;52.614;13.500;2022-08-11T02:25:19;16.50;99.90
13835;DHT22;6988;52.614;13.500;2022-08-11T02:30:16;16.40;99.90
13835;DHT22;6988;52.614;13.500;2022-08-11T02:35:18;16.40;99.90
13835;DHT22;6988;52.614;13.500;2022-08-11T02:40:28;16.30;99.90
13835;DHT22;6988;52.614;13.500;2022-08-11T02:45:46;16.30;99.90
13835;DHT22;6988;52.614;13.500;2022-08-11T02:50:51;16.30;99.90
13835;DHT22;6988;52.614;13.500;2022-08-11T02:56:02;16.00;99.90
13835;DHT22;6988;52.614;13.500;2022-08-11T03:01:05;15.90;99.90
13835;DHT22;6988;52.614;13.500;2022-08-11T03:06:09;15.70;99.90
13835;DHT22;6988;52.614;13.500;2022-08-11T03:11:14;15.70;99.90
13835;DHT22;6988;52.614;13.500;2022-08-11T03:16:33;15.70;99.90
13835;DHT22;6988;52.614;13.500;2022-08-11T03:21:43;15.70;99.90
13835;DHT22;6988;52.614;13.500;2022-08-11T03:26:46;15.50;99.90
13835;DHT22;6988;52.614;13.500;2022-08-11T03:31:51;15.40;99.90
13835;DHT22;6988;52.614;13.500;2022-08-11T03:37:10;15.20;99.90
13835;DHT22;6988;52.614;13.500;2022-08-11T03:42:39;15.20;99.90
13835;DHT22;6988;52.614;13.500;2022-08-11T03:47:47;15.30;99.90
13835;DHT22;6988;52.614;13.500;2022-08-11T03:52:57;15.20;99.90
13835;DHT22;6988;52.614;13.500;2022-08-11T03:58:27;15.10;99.90
13835;DHT22;6988;52.614;13.500;2022-08-11T04:03:51;15.10;99.90
13835;DHT22;6988;52.614;13.500;2022-08-11T04:14:42;15.10;99.90
13835;DHT22;6988;52.614;13.500;2022-08-11T04:20:21;15.30;99.90
13835;DHT22;6988;52.614;13.500;2022-08-11T04:25:36;15.20;99.90
13835;DHT22;6988;52.614;13.500;2022-08-11T04:31:01;15.20;99.90
13835;DHT22;6988;52.614;13.500;2022-08-11T04:36:09;15.10;99.90
13835;DHT22;6988;52.614;13.500;2022-08-11T04:42:06;15.20;99.90
13835;DHT22;6988;52.614;13.500;2022-08-11T04:47:50;15.30;99.90
13835;DHT22;6988;52.614;13.500;2022-08-11T04:53:25;15.40;99.90
13835;DHT22;6988;52.614;13.500;2022-08-11T04:58:56;15.50;99.90
13835;DHT22;6988;52.614;13.500;2022-08-11T05:04:52;15.60;99.90
13835;DHT22;6988;52.614;13.500;2022-08-11T05:10:17;15.80;99.90
13835;DHT22;6988;52.614;13.500;2022-08-11T05:15:20;16.10;99.90
13835;DHT22;6988;52.614;13.500;2022-08-11T05:20:46;16.40;99.90
13835;DHT22;6988;52.614;13.500;2022-08-11T05:26:02;16.60;99.90
13835;DHT22;6988;52.614;13.500;2022-08-11T05:31:14;16.90;99.90
13835;DHT22;6988;52.614;13.500;2022-08-11T05:36:29;17.30;99.90
13835;DHT22;6988;52.614;13.500;2022-08-11T05:41:29;17.70;99.90
13835;DHT22;6988;52.614;13.500;2022-08-11T05:46:40;18.00;99.90
13835;DHT22;6988;52.614;13.500;2022-08-11T05:51:52;18.30;99.90
13835;DHT22;6988;52.614;13.500;2022-08-11T05:57:02;18.60;99.90
13835;DHT22;6988;52.614;13.500;2022-08-11T06:01:59;18.80;99.90
13835;DHT22;6988;52.614;13.500;2022-08-11T06:06:55;19.30;99.90
13835;DHT22;6988;52.614;13.500;2022-08-11T06:11:49;19.30;99.90
13835;DHT22;6988;52.614;13.500;2022-08-11T06:16:42;19.60;99.90
13835;DHT22;6988;52.614;13.500;2022-08-11T06:21:43;19.90;99.90
13835;DHT22;6988;52.614;13.500;2022-08-11T06:26:39;20.20;99.90
13835;DHT22;6988;52.614;13.500;2022-08-11T06:31:33;20.30;99.90
13835;DHT22;6988;52.614;13.500;2022-08-11T06:36:31;20.50;99.90
13835;DHT22;6988;52.614;13.500;2022-08-11T06:41:32;20.80;99.90
13835;DHT22;6988;52.614;13.500;2022-08-11T06:46:31;21.20;99.90
13835;DHT22;6988;52.614;13.500;2022-08-11T06:51:26;21.50;99.90
13835;DHT22;6988;52.614;13.500;2022-08-11T06:56:23;21.90;99.90
13835;DHT22;6988;52.614;13.500;2022-08-11T07:01:41;22.30;99.90
13835;DHT22;6988;52.614;13.500;2022-08-11T07:07:11;22.70;99.90
13835;DHT22;6988;52.614;13.500;2022-08-11T07:12:43;23.10;99.90
13835;DHT22;6988;52.614;13.500;2022-08-11T07:17:56;23.50;99.90
13835;DHT22;6988;52.614;13.500;2022-08-11T07:23:13;23.80;99.90
13835;DHT22;6988;52.614;13.500;2022-08-11T07:28:26;24.30;99.90
13835;DHT22;6988;52.614;13.500;2022-08-11T07:33:43;24.80;99.90
13835;DHT22;6988;52.614;13.500;2022-08-11T07:38:40;25.10;99.90
13835;DHT22;6988;52.614;13.500;2022-08-11T07:43:33;25.10;99.90
13835;DHT22;6988;52.614;13.500;2022-08-11T07:48:26;25.60;99.90
13835;DHT22;6988;52.614;13.500;2022-08-11T07:53:38;25.50;99.90
13835;DHT22;6988;52.614;13.500;2022-08-11T07:58:31;25.80;99.60
13835;DHT22;6988;52.614;13.500;2022-08-11T08:03:43;26.30;98.90
13835;DHT22;6988;52.614;13.500;2022-08-11T08:08:55;26.80;97.90
13835;DHT22;6988;52.614;13.500;2022-08-11T08:14:06;27.10;97.10
13835;DHT22;6988;52.614;13.500;2022-08-11T08:19:19;27.80;96.10
13835;DHT22;6988;52.614;13.500;2022-08-11T08:24:14;28.00;95.40
13835;DHT22;6988;52.614;13.500;2022-08-11T08:29:07;28.30;94.80
13835;DHT22;6988;52.614;13.500;2022-08-11T08:34:17;28.60;93.50
13835;DHT22;6988;52.614;13.500;2022-08-11T08:39:12;28.60;92.80
13835;DHT22;6988;52.614;13.500;2022-08-11T08:44:08;28.90;92.90
13835;DHT22;6988;52.614;13.500;2022-08-11T08:49:02;28.90;91.20
13835;DHT22;6988;52.614;13.500;2022-08-11T08:53:59;29.00;90.80
13835;DHT22;6988;52.614;13.500;2022-08-11T08:58:58;29.60;90.10
13835;DHT22;6988;52.614;13.500;2022-08-11T09:03:52;29.90;87.70
13835;DHT22;6988;52.614;13.500;2022-08-11T09:08:45;30.00;85.70
13835;DHT22;6988;52.614;13.500;2022-08-11T09:13:38;30.60;85.80
13835;DHT22;6988;52.614;13.500;2022-08-11T09:18:32;30.70;80.50
13835;DHT22;6988;52.614;13.500;2022-08-11T09:23:25;30.90;79.60
13835;DHT22;6988;52.614;13.500;2022-08-11T09:28:34;31.10;80.00
13835;DHT22;6988;52.614;13.500;2022-08-11T09:33:28;31.70;76.90
13835;DHT22;6988;52.614;13.500;2022-08-11T09:38:25;31.30;74.00
13835;DHT22;6988;52.614;13.500;2022-08-11T09:43:38;30.90;74.30
13835;DHT22;6988;52.614;13.500;2022-08-11T09:48:51;31.60;74.40
13835;DHT22;6988;52.614;13.500;2022-08-11T09:53:48;31.60;72.10
13835;DHT22;6988;52.614;13.500;2022-08-11T09:58:43;31.20;71.90
13835;DHT22;6988;52.614;13.500;2022-08-11T10:03:36;30.80;71.60
13835;DHT22;6988;52.614;13.500;2022-08-11T10:08:35;30.30;75.50
13835;DHT22;6988;52.614;13.500;2022-08-11T10:13:32;31.50;71.30
13835;DHT22;6988;52.614;13.500;2022-08-11T10:18:48;32.80;70.30
13835;DHT22;6988;52.614;13.500;2022-08-11T10:23:42;33.70;68.50
13835;DHT22;6988;52.614;13.500;2022-08-11T10:28:54;34.20;66.00
13835;DHT22;6988;52.614;13.500;2022-08-11T10:33:48;34.30;62.60
13835;DHT22;6988;52.614;13.500;2022-08-11T10:38:53;34.00;62.70
13835;DHT22;6988;52.614;13.500;2022-08-11T10:43:46;33.80;59.70
13835;DHT22;6988;52.614;13.500;2022-08-11T10:48:40;34.40;61.60
13835;DHT22;6988;52.614;13.500;2022-08-11T10:53:33;34.90;58.70
13835;DHT22;6988;52.614;13.500;2022-08-11T10:58:43;35.20;58.00
13835;DHT22;6988;52.614;13.500;2022-08-11T11:03:37;35.00;56.50
13835;DHT22;6988;52.614;13.500;2022-08-11T11:08:30;35.20;56.30
13835;DHT22;6988;52.614;13.500;2022-08-11T11:13:45;34.70;54.50
13835;DHT22;6988;52.614;13.500;2022-08-11T11:19:00;34.40;54.30
13835;DHT22;6988;52.614;13.500;2022-08-11T11:24:08;33.60;55.10
13835;DHT22;6988;52.614;13.500;2022-08-11T11:29:18;32.90;55.80
13835;DHT22;6988;52.614;13.500;2022-08-11T11:34:35;33.50;57.70
13835;DHT22;6988;52.614;13.500;2022-08-11T11:39:42;34.20;55.30
13835;DHT22;6988;52.614;13.500;2022-08-11T11:44:37;33.50;54.90
13835;DHT22;6988;52.614;13.500;2022-08-11T11:49:30;32.80;55.80
13835;DHT22;6988;52.614;13.500;2022-08-11T11:54:24;32.70;57.00
13835;DHT22;6988;52.614;13.500;2022-08-11T11:59:20;33.50;56.90
13835;DHT22;6988;52.614;13.500;2022-08-11T12:04:32;34.40;55.90
13835;DHT22;6988;52.614;13.500;2022-08-11T12:09:26;33.50;53.70
13835;DHT22;6988;52.614;13.500;2022-08-11T12:14:20;34.10;55.50
13835;DHT22;6988;52.614;13.500;2022-08-11T12:19:16;34.70;54.30
13835;DHT22;6988;52.614;13.500;2022-08-11T12:24:10;33.90;52.80
13835;DHT22;6988;52.614;13.500;2022-08-11T12:29:22;33.40;53.10
13835;DHT22;6988;52.614;13.500;2022-08-11T12:34:16;33.60;51.80
13835;DHT22;6988;52.614;13.500;2022-08-11T12:39:10;33.40;54.00
13835;DHT22;6988;52.614;13.500;2022-08-11T12:44:04;33.40;54.10
13835;DHT22;6988;52.614;13.500;2022-08-11T12:49:40;33.20;53.50
13835;DHT22;6988;52.614;13.500;2022-08-11T12:54:59;33.70;53.30
13835;DHT22;6988;52.614;13.500;2022-08-11T12:59:58;34.00;54.10
13835;DHT22;6988;52.614;13.500;2022-08-11T13:05:12;33.80;52.60
13835;DHT22;6988;52.614;13.500;2022-08-11T13:10:08;34.30;51.00
13835;DHT22;6988;52.614;13.500;2022-08-11T13:15:02;34.30;51.90
13835;DHT22;6988;52.614;13.500;2022-08-11T13:19:57;34.60;50.80
13835;DHT22;6988;52.614;13.500;2022-08-11T13:24:52;34.50;50.60
13835;DHT22;6988;52.614;13.500;2022-08-11T13:29:46;34.10;50.20
13835;DHT22;6988;52.614;13.500;2022-08-11T13:34:42;34.10;50.10
13835;DHT22;6988;52.614;13.500;2022-08-11T13:39:36;34.10;51.10
13835;DHT22;6988;52.614;13.500;2022-08-11T13:44:33;34.50;48.10
13835;DHT22;6988;52.614;13.500;2022-08-11T13:49:28;34.00;48.80
13835;DHT22;6988;52.614;13.500;2022-08-11T13:54:22;33.70;50.10
13835;DHT22;6988;52.614;13.500;2022-08-11T13:59:18;32.70;49.00
13835;DHT22;6988;52.614;13.500;2022-08-11T14:04:15;32.30;49.90
13835;DHT22;6988;52.614;13.500;2022-08-11T14:09:13;32.00;50.20
13835;DHT22;6988;52.614;13.500;2022-08-11T14:14:14;31.90;50.50
13835;DHT22;6988;52.614;13.500;2022-08-11T14:19:13;31.80;50.10
13835;DHT22;6988;52.614;13.500;2022-08-11T14:24:08;31.80;49.40
13835;DHT22;6988;52.614;13.500;2022-08-11T14:29:05;31.70;49.70
13835;DHT22;6988;52.614;13.500;2022-08-11T14:34:02;31.90;49.70
13835;DHT22;6988;52.614;13.500;2022-08-11T14:38:57;31.70;49.30
13835;DHT22;6988;52.614;13.500;2022-08-11T14:43:52;31.80;49.90
13835;DHT22;6988;52.614;13.500;2022-08-11T14:49:04;32.10;49.10
13835;DHT22;6988;52.614;13.500;2022-08-11T14:53:57;31.90;49.40
13835;DHT22;6988;52.614;13.500;2022-08-11T14:59:05;32.20;49.10
13835;DHT22;6988;52.614;13.500;2022-08-11T15:03:58;32.00;49.20
13835;DHT22;6988;52.614;13.500;2022-08-11T15:08:50;31.80;49.30
13835;DHT22;6988;52.614;13.500;2022-08-11T15:13:47;31.90;49.60
13835;DHT22;6988;52.614;13.500;2022-08-11T15:18:38;32.00;48.30
13835;DHT22;6988;52.614;13.500;2022-08-11T15:23:30;31.50;48.30
13835;DHT22;6988;52.614;13.500;2022-08-11T15:28:45;31.20;48.50
13835;DHT22;6988;52.614;13.500;2022-08-11T15:34:00;30.80;49.60
13835;DHT22;6988;52.614;13.500;2022-08-11T15:39:15;30.80;50.90
13835;DHT22;6988;52.614;13.500;2022-08-11T15:44:12;30.90;51.00
13835;DHT22;6988;52.614;13.500;2022-08-11T15:49:29;30.80;50.80
13835;DHT22;6988;52.614;13.500;2022-08-11T15:54:26;30.70;50.40
13835;DHT22;6988;52.614;13.500;2022-08-11T15:59:22;30.60;50.60
13835;DHT22;6988;52.614;13.500;2022-08-11T16:04:34;30.60;50.40
13835;DHT22;6988;52.614;13.500;2022-08-11T16:09:31;30.70;50.40
13835;DHT22;6988;52.614;13.500;2022-08-11T16:14:27;30.60;50.90
13835;DHT22;6988;52.614;13.500;2022-08-11T16:19:41;30.40;50.80
13835;DHT22;6988;52.614;13.500;2022-08-11T16:24:38;30.00;50.40
13835;DHT22;6988;52.614;13.500;2022-08-11T16:29:36;29.90;49.90
13835;DHT22;6988;52.614;13.500;2022-08-11T16:34:32;29.70;50.70
13835;DHT22;6988;52.614;13.500;2022-08-11T16:39:43;29.50;50.70
13835;DHT22;6988;52.614;13.500;2022-08-11T16:44:39;29.20;50.80
13835;DHT22;6988;52.614;13.500;2022-08-11T16:49:51;29.00;51.30
13835;DHT22;6988;52.614;13.500;2022-08-11T16:54:44;28.90;51.50
13835;DHT22;6988;52.614;13.500;2022-08-11T16:59:38;28.80;51.80
13835;DHT22;6988;52.614;13.500;2022-08-11T17:04:38;28.80;51.30
13835;DHT22;6988;52.614;13.500;2022-08-11T17:09:51;28.50;51.50
13835;DHT22;6988;52.614;13.500;2022-08-11T17:15:10;28.40;51.80
13835;DHT22;6988;52.614;13.500;2022-08-11T17:20:19;28.30;52.40
13835;DHT22;6988;52.614;13.500;2022-08-11T17:25:12;28.10;52.40
13835;DHT22;6988;52.614;13.500;2022-08-11T17:30:08;27.90;52.30
13835;DHT22;6988;52.614;13.500;2022-08-11T17:35:04;27.80;52.50
13835;DHT22;6988;52.614;13.500;2022-08-11T17:40:21;27.60;52.90
13835;DHT22;6988;52.614;13.500;2022-08-11T17:45:17;27.50;53.60
13835;DHT22;6988;52.614;13.500;2022-08-11T17:50:29;27.40;53.80
13835;DHT22;6988;52.614;13.500;2022-08-11T17:55:24;27.10;54.00
13835;DHT22;6988;52.614;13.500;2022-08-11T18:00:35;26.90;54.00
13835;DHT22;6988;52.614;13.500;2022-08-11T18:05:30;26.90;54.40
13835;DHT22;6988;52.614;13.500;2022-08-11T18:10:24;26.70;54.50
13835;DHT22;6988;52.614;13.500;2022-08-11T18:15:37;26.60;55.00
13835;DHT22;6988;52.614;13.500;2022-08-11T18:20:48;26.30;56.00
13835;DHT22;6988;52.614;13.500;2022-08-11T18:26:00;26.00;58.30
13835;DHT22;6988;52.614;13.500;2022-08-11T18:31:14;25.80;61.10
13835;DHT22;6988;52.614;13.500;2022-08-11T18:36:29;25.60;58.60
13835;DHT22;6988;52.614;13.500;2022-08-11T18:41:44;25.50;57.60
13835;DHT22;6988;52.614;13.500;2022-08-11T18:46:58;25.20;59.90
13835;DHT22;6988;52.614;13.500;2022-08-11T18:52:14;24.90;59.50
13835;DHT22;6988;52.614;13.500;2022-08-11T18:57:25;24.70;62.60
13835;DHT22;6988;52.614;13.500;2022-08-11T19:02:38;24.50;64.70
13835;DHT22;6988;52.614;13.500;2022-08-11T19:07:49;24.40;65.80
13835;DHT22;6988;52.614;13.500;2022-08-11T19:13:01;24.20;66.20
13835;DHT22;6988;52.614;13.500;2022-08-11T19:18:17;24.10;67.80
13835;DHT22;6988;52.614;13.500;2022-08-11T19:23:47;23.90;70.00
13835;DHT22;6988;52.614;13.500;2022-08-11T19:29:00;23.80;69.50
13835;DHT22;6988;52.614;13.500;2022-08-11T19:34:12;23.70;69.40
13835;DHT22;6988;52.614;13.500;2022-08-11T19:39:25;23.60;70.40
13835;DHT22;6988;52.614;13.500;2022-08-11T19:44:36;23.50;70.40
13835;DHT22;6988;52.614;13.500;2022-08-11T19:49:48;23.30;71.90
13835;DHT22;6988;52.614;13.500;2022-08-11T19:54:58;23.20;72.20
13835;DHT22;6988;52.614;13.500;2022-08-11T20:00:12;23.10;71.90
13835;DHT22;6988;52.614;13.500;2022-08-11T20:05:25;23.00;72.70
13835;DHT22;6988;52.614;13.500;2022-08-11T20:10:35;22.80;74.10
13835;DHT22;6988;52.614;13.500;2022-08-11T20:15:46;22.60;74.20
13835;DHT22;6988;52.614;13.500;2022-08-11T20:20:58;22.50;75.20
13835;DHT22;6988;52.614;13.500;2022-08-11T20:26:09;22.40;76.00
13835;DHT22;6988;52.614;13.500;2022-08-11T20:31:20;22.30;76.90
13835;DHT22;6988;52.614;13.500;2022-08-11T20:36:33;22.30;77.50
13835;DHT22;6988;52.614;13.500;2022-08-11T20:41:45;22.10;77.40
13835;DHT22;6988;52.614;13.500;2022-08-11T20:46:56;21.90;78.10
13835;DHT22;6988;52.614;13.500;2022-08-11T20:52:09;21.80;79.00
13835;DHT22;6988;52.614;13.500;2022-08-11T20:57:20;21.60;80.30
13835;DHT22;6988;52.614;13.500;2022-08-11T21:02:31;21.60;81.20
13835;DHT22;6988;52.614;13.500;2022-08-11T21:07:47;21.40;82.50
13835;DHT22;6988;52.614;13.500;2022-08-11T21:13:00;21.30;84.60
13835;DHT22;6988;52.614;13.500;2022-08-11T21:18:13;21.20;87.90
13835;DHT22;6988;52.614;13.500;2022-08-11T21:23:26;21.20;90.20
13835;DHT22;6988;52.614;13.500;2022-08-11T21:28:41;21.10;91.50
13835;DHT22;6988;52.614;13.500;2022-08-11T21:33:52;21.00;92.90
13835;DHT22;6988;52.614;13.500;2022-08-11T21:39:06;21.00;94.60
13835;DHT22;6988;52.614;13.500;2022-08-11T21:44:19;20.90;95.70
13835;DHT22;6988;52.614;13.500;2022-08-11T21:49:30;20.90;97.70
13835;DHT22;6988;52.614;13.500;2022-08-11T21:54:42;20.70;99.50
13835;DHT22;6988;52.614;13.500;2022-08-11T21:59:54;20.60;99.90
13835;DHT22;6988;52.614;13.500;2022-08-11T22:05:06;20.60;99.90
13835;DHT22;6988;52.614;13.500;2022-08-11T22:10:19;20.50;99.90
13835;DHT22;6988;52.614;13.500;2022-08-11T22:15:28;20.50;99.90
13835;DHT22;6988;52.614;13.500;2022-08-11T22:20:38;20.30;99.90
13835;DHT22;6988;52.614;13.500;2022-08-11T22:25:50;20.10;99.90
13835;DHT22;6988;52.614;13.500;2022-08-11T22:31:01;20.00;99.90
13835;DHT22;6988;52.614;13.500;2022-08-11T22:36:12;19.90;99.90
13835;DHT22;6988;52.614;13.500;2022-08-11T22:41:24;19.90;99.90
13835;DHT22;6988;52.614;13.500;2022-08-11T22:46:34;19.70;99.90
13835;DHT22;6988;52.614;13.500;2022-08-11T22:51:44;19.60;99.90
13835;DHT22;6988;52.614;13.500;2022-08-11T22:56:58;19.50;99.90
13835;DHT22;6988;52.614;13.500;2022-08-11T23:02:08;19.40;99.90
13835;DHT22;6988;52.614;13.500;2022-08-11T23:07:19;19.40;99.90
13835;DHT22;6988;52.614;13.500;2022-08-11T23:12:31;19.40;99.90
13835;DHT22;6988;52.614;13.500;2022-08-11T23:17:43;19.30;99.90
13835;DHT22;6988;52.614;13.500;2022-08-11T23:22:52;19.30;99.90
13835;DHT22;6988;52.614;13.500;2022-08-11T23:28:05;19.30;99.90
13835;DHT22;6988;52.614;13.500;2022-08-11T23:33:18;19.30;99.90
13835;DHT22;6988;52.614;13.500;2022-08-11T23:38:31;18.90;99.90
13835;DHT22;6988;52.614;13.500;2022-08-11T23:43:43;18.50;99.90
13835;DHT22;6988;52.614;13.500;2022-08-11T23:48:55;18.40;99.90
13835;DHT22;6988;52.614;13.500;2022-08-11T23:54:08;18.30;99.90
13835;DHT22;6988;52.614;13.500;2022-08-11T23:59:19;18.20;99.90
